Terminal Aerodrome Forecast
Issued by NWS

Home | Current Version | Previous Version | Text Only | Print | Product List | Glossary On
Versions: 1 2 3 4 5 6 7 8 9 10 11 12 13 14 15 16 17 18 19 20 21 22 23 24 25 26
692
FTUS46 KSGX 181144
TAFSAN
TAF
KSAN 181144Z 1812/1918 VRB05KT P6SM SCT025 BKN200
      TEMPO 1812/1815 BKN020
     FM182100 27010KT P6SM FEW015 BKN040
     FM190000 26007KT P6SM BKN035
     FM190800 24007KT P6SM VCSH BKN025 OVC035
     FM191200 18013G20KT 4SM RA BR BKN015 OVC025=

USA.gov is the U.S. government's official web portal to all federal, state and local government web resources and services.